createdAt,value
2023-05-14T00:00:31.220Z,0.5076
2023-05-14T00:01:33.830Z,0.4974
2023-05-14T00:02:36.499Z,0.4879
2023-05-14T00:03:39.080Z,0.4805
2023-05-14T00:04:41.751Z,0.4736
2023-05-14T00:05:44.233Z,0.4649
2023-05-14T00:06:46.874Z,0.4724
2023-05-14T00:09:33.349Z,0.4642
2023-05-14T00:10:35.948Z,0.4731
2023-05-14T00:11:38.569Z,0.4762
2023-05-14T00:12:41.176Z,0.4792
2023-05-14T00:13:43.837Z,0.4939
2023-05-14T00:14:46.381Z,0.4964
2023-05-14T00:15:49.259Z,0.4885
2023-05-14T00:16:51.607Z,0.5061
2023-05-14T00:17:54.312Z,0.5077
2023-05-14T00:18:56.859Z,0.4930
2023-05-14T00:19:59.465Z,0.4848
2023-05-14T00:21:02.056Z,0.4970
2023-05-14T00:22:04.777Z,0.5049
2023-05-14T00:23:07.279Z,0.4906
2023-05-14T00:24:09.898Z,0.4975
2023-05-14T00:25:12.480Z,0.4911
2023-05-14T00:26:15.156Z,0.4943
2023-05-14T00:27:17.701Z,0.5003
2023-05-14T00:28:20.328Z,0.4996
2023-05-14T00:29:22.907Z,0.5090
2023-05-14T00:30:25.719Z,0.5224
2023-05-14T00:31:28.165Z,0.4940
2023-05-14T00:32:30.791Z,0.4884
2023-05-14T00:33:33.370Z,0.4770
2023-05-14T00:34:35.986Z,0.4831
2023-05-14T00:35:38.556Z,0.4854
2023-05-14T00:36:41.405Z,0.4878
2023-05-14T00:37:43.764Z,0.4808
2023-05-14T00:38:46.409Z,0.4956
2023-05-14T00:39:48.989Z,0.5092
2023-05-14T00:40:51.639Z,0.4963
2023-05-14T00:41:54.195Z,0.4818
2023-05-14T00:42:56.929Z,0.4969
2023-05-14T00:43:59.426Z,0.4875
2023-05-14T00:45:02.037Z,0.4898
2023-05-14T00:46:04.619Z,0.4911
2023-05-14T00:49:01.968Z,0.4446
2023-05-14T00:50:04.610Z,0.5087
2023-05-14T00:51:07.175Z,0.5022
2023-05-14T00:52:09.812Z,0.5041
2023-05-14T00:53:12.398Z,0.4995
2023-05-14T00:54:15.060Z,0.4815
2023-05-14T00:55:17.618Z,0.4811
2023-05-14T00:56:20.249Z,0.4818
2023-05-14T00:57:22.831Z,0.4878
2023-05-14T00:58:25.481Z,0.4939
2023-05-14T00:59:28.065Z,0.5128
2023-05-14T01:00:30.717Z,0.4947
2023-05-14T01:01:33.309Z,0.4953
2023-05-14T01:02:35.967Z,0.4977
2023-05-14T01:03:38.584Z,0.4733
2023-05-14T01:04:41.137Z,0.4697
2023-05-14T01:05:43.738Z,0.4764
2023-05-14T01:06:46.349Z,0.4877
2023-05-14T01:07:48.925Z,0.4934
2023-05-14T01:08:51.556Z,0.4958
2023-05-14T01:09:54.149Z,0.4882
2023-05-14T01:10:56.765Z,0.5038
2023-05-14T01:11:59.362Z,0.5001
2023-05-14T01:13:01.987Z,0.4877
2023-05-14T01:14:04.605Z,0.4880
2023-05-14T01:15:07.192Z,0.4803
2023-05-14T01:16:10.292Z,0.4874
2023-05-14T01:17:12.407Z,0.4964
2023-05-14T01:18:14.989Z,0.4753
2023-05-14T01:19:17.676Z,0.4846
2023-05-14T01:20:20.224Z,0.5065
2023-05-14T01:21:22.840Z,0.4927
2023-05-14T01:22:25.441Z,0.4797
2023-05-14T01:23:28.052Z,0.5073
2023-05-14T01:24:30.645Z,0.5049
2023-05-14T01:25:33.266Z,0.4848
2023-05-14T01:26:35.842Z,0.5014
2023-05-14T01:27:38.468Z,0.5121
2023-05-14T01:28:41.070Z,0.5105
2023-05-14T01:29:43.704Z,0.4952
2023-05-14T01:30:46.267Z,0.4902
2023-05-14T01:31:48.938Z,0.4839
2023-05-14T01:32:51.674Z,0.4828
2023-05-14T01:33:54.115Z,0.4806
2023-05-14T01:34:56.705Z,0.4857
2023-05-14T01:35:59.337Z,0.4775
2023-05-14T01:37:02.014Z,0.4897
2023-05-14T01:38:04.538Z,0.4978
2023-05-14T01:39:07.153Z,0.5008
2023-05-14T01:40:09.826Z,0.4877
2023-05-14T01:41:12.359Z,0.4913
2023-05-14T01:42:14.946Z,0.4935
2023-05-14T01:43:17.589Z,0.5160
2023-05-14T01:44:20.149Z,0.5162
2023-05-14T01:45:22.772Z,0.4947
2023-05-14T01:46:25.389Z,0.4855
2023-05-14T01:47:27.993Z,0.4889
2023-05-14T01:48:30.588Z,0.4991
2023-05-14T01:49:33.206Z,0.4865
2023-05-14T01:50:35.798Z,0.4892
2023-05-14T01:51:38.424Z,0.4944
2023-05-14T01:52:41.009Z,0.4852
2023-05-14T01:53:43.630Z,0.4905
2023-05-14T01:54:46.235Z,0.4855
2023-05-14T01:55:48.866Z,0.4694
2023-05-14T01:56:51.450Z,0.4827
2023-05-14T01:57:54.077Z,0.5021
2023-05-14T01:58:56.654Z,0.4860
2023-05-14T01:59:59.290Z,0.4728
2023-05-14T02:01:01.947Z,0.4556
2023-05-14T02:02:04.502Z,0.4734
2023-05-14T02:03:07.165Z,0.5020
2023-05-14T02:04:09.761Z,0.4923
2023-05-14T02:05:12.310Z,0.4836
2023-05-14T02:06:14.942Z,0.4825
2023-05-14T02:07:17.526Z,0.4857
2023-05-14T02:08:20.159Z,0.4912
2023-05-14T02:09:22.750Z,0.4842
2023-05-14T02:10:25.649Z,0.4689
2023-05-14T02:11:27.975Z,0.4783
2023-05-14T02:12:30.614Z,0.4883
2023-05-14T02:13:33.195Z,0.4895
2023-05-14T02:14:35.836Z,0.5083
2023-05-14T02:15:38.441Z,0.4812
2023-05-14T02:16:41.036Z,0.4745
2023-05-14T02:17:43.672Z,0.4820
2023-05-14T02:18:46.278Z,0.4763
2023-05-14T02:21:32.751Z,0.4583
2023-05-14T02:22:35.346Z,0.4952
2023-05-14T02:23:41.856Z,0.4946
2023-05-14T02:24:40.566Z,0.4811
2023-05-14T02:25:43.307Z,0.4709
2023-05-14T02:26:45.978Z,0.4680
2023-05-14T02:27:48.442Z,0.4681
2023-05-14T02:28:51.026Z,0.4736
2023-05-14T02:29:53.708Z,0.4883
2023-05-14T02:30:56.260Z,0.4836
2023-05-14T02:31:59.037Z,0.4704
2023-05-14T02:33:01.526Z,0.4859
2023-05-14T02:34:04.118Z,0.4605
2023-05-14T02:35:06.728Z,0.4556
2023-05-14T02:36:09.318Z,0.4755
2023-05-14T02:37:11.904Z,0.4754
2023-05-14T02:38:14.538Z,0.4958
2023-05-14T02:39:17.128Z,0.4745
2023-05-14T02:40:19.767Z,0.4851
2023-05-14T02:41:22.352Z,0.5036
2023-05-14T02:42:24.982Z,0.4969
2023-05-14T02:43:27.573Z,0.4918
2023-05-14T02:44:30.450Z,0.4896
2023-05-14T02:45:32.806Z,0.4844
2023-05-14T02:46:35.569Z,0.4723
2023-05-14T02:47:38.429Z,0.4995
2023-05-14T02:48:40.652Z,0.4993
2023-05-14T02:49:43.249Z,0.4932
2023-05-14T02:50:45.888Z,0.4970
2023-05-14T02:51:48.457Z,0.4708
2023-05-14T02:52:51.119Z,0.4757
2023-05-14T02:53:53.675Z,0.4737
2023-05-14T02:54:56.315Z,0.4836
2023-05-14T02:55:58.894Z,0.4652
2023-05-14T02:57:01.530Z,0.4902
2023-05-14T02:58:04.116Z,0.5116
2023-05-14T02:59:06.768Z,0.4977
2023-05-14T03:00:09.366Z,0.4970
2023-05-14T03:01:11.994Z,0.4858
2023-05-14T03:02:14.581Z,0.4813
2023-05-14T03:03:17.283Z,0.4893
2023-05-14T03:04:19.788Z,0.4683
2023-05-14T03:05:22.424Z,0.4787
2023-05-14T03:06:25.024Z,0.4918
2023-05-14T03:07:27.655Z,0.5056
2023-05-14T03:08:30.256Z,0.5093
2023-05-14T03:09:32.873Z,0.4908
2023-05-14T03:10:35.464Z,0.4806
2023-05-14T03:11:38.100Z,0.4680
2023-05-14T03:12:40.712Z,0.4730
2023-05-14T03:13:43.326Z,0.4703
2023-05-14T03:14:46.036Z,0.4772
2023-05-14T03:15:48.563Z,0.4854
2023-05-14T03:16:51.175Z,0.4957
2023-05-14T03:17:53.863Z,0.4994
2023-05-14T03:18:56.417Z,0.5152
2023-05-14T03:19:59.023Z,0.5012
2023-05-14T03:21:01.601Z,0.4942
2023-05-14T03:22:04.246Z,0.4754
2023-05-14T03:23:06.833Z,0.4804
2023-05-14T03:24:09.765Z,0.4945
2023-05-14T03:25:12.051Z,0.4841
2023-05-14T03:26:14.689Z,0.4964
2023-05-14T03:27:17.274Z,0.5001
2023-05-14T03:28:19.920Z,0.4954
2023-05-14T03:29:22.512Z,0.4920
2023-05-14T03:30:25.383Z,0.5056
2023-05-14T03:31:27.761Z,0.5166
2023-05-14T03:32:30.393Z,0.5086
2023-05-14T03:33:32.972Z,0.4978
2023-05-14T03:34:35.596Z,0.4905
2023-05-14T03:35:38.186Z,0.5079
2023-05-14T03:36:40.836Z,0.5042
2023-05-14T03:37:43.424Z,0.4907
2023-05-14T03:38:46.062Z,0.4997
2023-05-14T03:39:48.659Z,0.4972
2023-05-14T03:40:51.317Z,0.4979
2023-05-14T03:41:53.877Z,0.5047
2023-05-14T03:42:56.520Z,0.4854
2023-05-14T03:43:59.148Z,0.5185
2023-05-14T03:45:01.752Z,0.5196
2023-05-14T03:46:04.359Z,0.5169
2023-05-14T03:47:06.979Z,0.4944
2023-05-14T03:48:09.661Z,0.4780
2023-05-14T03:49:12.226Z,0.4976
2023-05-14T03:50:14.835Z,0.4871
2023-05-14T03:51:17.476Z,0.4782
2023-05-14T03:52:20.036Z,0.5133
2023-05-14T03:53:22.783Z,0.5021
2023-05-14T03:54:25.274Z,0.5031
2023-05-14T03:55:27.914Z,0.5009
2023-05-14T03:56:30.504Z,0.5045
2023-05-14T03:57:33.153Z,0.5236
2023-05-14T03:58:35.764Z,0.5308
2023-05-14T03:59:38.352Z,0.5048
2023-05-14T04:00:40.952Z,0.4898
2023-05-14T04:01:43.596Z,0.5073
2023-05-14T04:02:46.236Z,0.4898
2023-05-14T04:03:48.981Z,0.4883
2023-05-14T04:04:51.519Z,0.5061
2023-05-14T04:05:54.043Z,0.4888
2023-05-14T04:06:56.654Z,0.5022
2023-05-14T04:07:59.283Z,0.4965
2023-05-14T04:09:01.886Z,0.4899
2023-05-14T04:10:04.831Z,0.4728
2023-05-14T04:11:07.117Z,0.4880
2023-05-14T04:12:09.750Z,0.4907
2023-05-14T04:13:12.407Z,0.5116
2023-05-14T04:14:14.993Z,0.4984
2023-05-14T04:16:47.214Z,0.4851
2023-05-14T04:17:49.779Z,0.4873
2023-05-14T04:18:52.400Z,0.5039
2023-05-14T04:19:54.937Z,0.4964
2023-05-14T04:20:57.578Z,0.4879
2023-05-14T04:22:00.196Z,0.4887
2023-05-14T04:23:02.798Z,0.5025
2023-05-14T04:24:05.430Z,0.5044
2023-05-14T04:25:08.021Z,0.4876
2023-05-14T04:26:10.658Z,0.4873
2023-05-14T04:27:13.249Z,0.4920
2023-05-14T04:28:15.898Z,0.5142
2023-05-14T04:29:18.476Z,0.4946
2023-05-14T04:30:21.317Z,0.4989
2023-05-14T04:31:23.949Z,0.5153
2023-05-14T04:32:26.365Z,0.5130
2023-05-14T04:33:28.946Z,0.5022
2023-05-14T04:34:31.571Z,0.5050
2023-05-14T04:35:34.180Z,0.4715
2023-05-14T04:36:36.797Z,0.4750
2023-05-14T04:37:39.401Z,0.4951
2023-05-14T04:38:42.029Z,0.4996
2023-05-14T04:39:44.615Z,0.5012
2023-05-14T04:40:47.271Z,0.4917
2023-05-14T04:41:49.845Z,0.5092
2023-05-14T04:42:52.502Z,0.5041
2023-05-14T04:43:55.318Z,0.4864
2023-05-14T04:44:57.714Z,0.4843
2023-05-14T04:46:00.382Z,0.4676
2023-05-14T04:47:02.931Z,0.4961
2023-05-14T04:48:05.560Z,0.4812
2023-05-14T04:49:08.164Z,0.4972
2023-05-14T04:50:10.756Z,0.5014
2023-05-14T04:51:13.399Z,0.5041
2023-05-14T04:52:15.973Z,0.4978
2023-05-14T04:53:18.732Z,0.5082
2023-05-14T04:54:21.227Z,0.4964
2023-05-14T04:55:23.832Z,0.5045
2023-05-14T04:56:26.411Z,0.4979
2023-05-14T04:57:29.073Z,0.4938
2023-05-14T04:58:33.739Z,0.4969
2023-05-14T04:59:34.270Z,0.4759
2023-05-14T05:00:36.869Z,0.4813
2023-05-14T05:01:39.617Z,0.4912
2023-05-14T05:02:42.167Z,0.5099
2023-05-14T05:03:44.789Z,0.5214
2023-05-14T05:04:47.342Z,0.4970
2023-05-14T05:05:49.949Z,0.5098
2023-05-14T05:06:52.528Z,0.4958
2023-05-14T05:07:55.166Z,0.4962
2023-05-14T05:08:58.066Z,0.5010
2023-05-14T05:10:00.396Z,0.4841
2023-05-14T05:11:02.979Z,0.4728
2023-05-14T05:12:05.650Z,0.4921
2023-05-14T05:13:08.195Z,0.5036
2023-05-14T05:14:10.843Z,0.4888
2023-05-14T05:16:23.662Z,0.4741
2023-05-14T05:17:26.314Z,0.5222
2023-05-14T05:18:28.882Z,0.5086
2023-05-14T05:19:42.514Z,0.4941
2023-05-14T05:20:34.093Z,0.5060
2023-05-14T05:21:36.725Z,0.4992
2023-05-14T05:22:39.311Z,0.5128
2023-05-14T05:23:41.958Z,0.5076
2023-05-14T05:24:44.540Z,0.4920
2023-05-14T05:25:47.170Z,0.4813
2023-05-14T05:26:49.758Z,0.4816
2023-05-14T05:27:52.401Z,0.4901
2023-05-14T05:28:55.006Z,0.4989
2023-05-14T05:29:57.640Z,0.5023
2023-05-14T05:31:00.274Z,0.4882
2023-05-14T05:32:02.856Z,0.4945
2023-05-14T05:33:05.508Z,0.4843
2023-05-14T05:34:08.070Z,0.5141
2023-05-14T05:35:10.664Z,0.5425
2023-05-14T05:36:13.293Z,0.5016
2023-05-14T05:37:15.883Z,0.4847
2023-05-14T05:38:18.545Z,0.4786
2023-05-14T05:39:21.111Z,0.4659
2023-05-14T05:40:23.951Z,0.4852
2023-05-14T05:41:26.328Z,0.4933
2023-05-14T05:42:28.965Z,0.4871
2023-05-14T05:43:31.573Z,0.5076
2023-05-14T05:44:34.194Z,0.4856
2023-05-14T05:45:36.777Z,0.4844
2023-05-14T05:46:39.547Z,0.4860
2023-05-14T05:47:42.039Z,0.4813
2023-05-14T05:48:44.643Z,0.5106
2023-05-14T05:49:47.233Z,0.5011
2023-05-14T05:50:49.873Z,0.5007
2023-05-14T05:51:52.498Z,0.4985
2023-05-14T05:52:55.087Z,0.5001
2023-05-14T05:53:57.698Z,0.5040
2023-05-14T05:55:00.325Z,0.5087
2023-05-14T05:56:02.890Z,0.5212
2023-05-14T05:57:05.523Z,0.5370
2023-05-14T05:58:08.114Z,0.5410
2023-05-14T05:59:10.762Z,0.4905
2023-05-14T06:00:13.387Z,0.5022
2023-05-14T06:01:15.980Z,0.4937
2023-05-14T06:02:18.587Z,0.4864
2023-05-14T06:03:21.214Z,0.4853
2023-05-14T06:04:23.758Z,0.4946
2023-05-14T06:05:26.440Z,0.4910
2023-05-14T06:06:28.982Z,0.5021
2023-05-14T06:07:31.609Z,0.4966
2023-05-14T06:08:34.195Z,0.4967
2023-05-14T06:09:36.837Z,0.4972
2023-05-14T06:10:39.423Z,0.4778
2023-05-14T06:11:42.062Z,0.4842
2023-05-14T06:12:44.624Z,0.4877
2023-05-14T06:13:47.267Z,0.4911
2023-05-14T06:14:49.861Z,0.4779
2023-05-14T06:15:52.479Z,0.4759
2023-05-14T06:16:55.095Z,0.4821
2023-05-14T06:17:57.775Z,0.5042
2023-05-14T06:19:00.408Z,0.5061
2023-05-14T06:20:02.899Z,0.5066
2023-05-14T06:21:05.753Z,0.4920
2023-05-14T06:22:08.124Z,0.4876
2023-05-14T06:23:10.765Z,0.4945
2023-05-14T06:24:13.336Z,0.5019
2023-05-14T06:25:15.978Z,0.5045
2023-05-14T06:26:18.570Z,0.5141
2023-05-14T06:27:21.178Z,0.4961
2023-05-14T06:28:23.767Z,0.5065
2023-05-14T06:29:26.406Z,0.5091
2023-05-14T06:30:29.015Z,0.4987
2023-05-14T06:31:31.651Z,0.4904
2023-05-14T06:32:34.206Z,0.4802
2023-05-14T06:33:36.822Z,0.4940
2023-05-14T06:34:39.407Z,0.5095
2023-05-14T06:35:42.038Z,0.5145
2023-05-14T06:36:44.627Z,0.4893
2023-05-14T06:37:47.235Z,0.4731
2023-05-14T06:38:49.824Z,0.4926
2023-05-14T06:39:52.452Z,0.4951
2023-05-14T06:40:55.032Z,0.4833
2023-05-14T06:41:57.658Z,0.4785
2023-05-14T06:43:00.243Z,0.4870
2023-05-14T06:44:02.864Z,0.5020
2023-05-14T06:45:05.444Z,0.4895
2023-05-14T06:46:08.073Z,0.4991
2023-05-14T06:47:10.655Z,0.5188
2023-05-14T06:48:13.429Z,0.5162
2023-05-14T06:49:15.908Z,0.5239
2023-05-14T06:50:18.515Z,0.5150
2023-05-14T06:51:21.088Z,0.5057
2023-05-14T06:52:23.727Z,0.4811
2023-05-14T06:53:26.285Z,0.4971
2023-05-14T06:54:28.908Z,0.4922
2023-05-14T06:55:31.489Z,0.4898
2023-05-14T06:56:34.113Z,0.4863
2023-05-14T06:57:38.528Z,0.4435
2023-05-14T06:58:39.314Z,0.4566
2023-05-14T06:59:41.892Z,0.4782
2023-05-14T07:00:44.550Z,0.4921
2023-05-14T07:01:47.162Z,0.4952
2023-05-14T07:02:49.757Z,0.4920
2023-05-14T07:03:52.374Z,0.4880
2023-05-14T07:04:54.988Z,0.4788
2023-05-14T07:05:57.545Z,0.4829
2023-05-14T07:07:00.171Z,0.4727
2023-05-14T07:08:02.728Z,0.4731
2023-05-14T07:09:05.379Z,0.4653
2023-05-14T07:10:07.930Z,0.4754
2023-05-14T07:11:10.549Z,0.4690
2023-05-14T07:12:13.131Z,0.4736
2023-05-14T07:13:15.763Z,0.4885
2023-05-14T07:14:18.334Z,0.5003
2023-05-14T07:15:20.948Z,0.4987
2023-05-14T07:16:23.540Z,0.4872
2023-05-14T07:17:26.186Z,0.4872
2023-05-14T07:18:28.751Z,0.4812
2023-05-14T07:19:31.330Z,0.4639
2023-05-14T07:20:33.918Z,0.4582
2023-05-14T07:21:36.596Z,0.4602
2023-05-14T07:22:39.100Z,0.4615
2023-05-14T07:23:41.720Z,0.4874
2023-05-14T07:24:44.308Z,0.4565
2023-05-14T07:25:46.928Z,0.4491
2023-05-14T07:26:49.524Z,0.4472
2023-05-14T07:27:52.134Z,0.4483
2023-05-14T07:28:54.845Z,0.4616
2023-05-14T07:29:57.372Z,0.4571
2023-05-14T07:30:59.992Z,0.4820
2023-05-14T07:32:02.568Z,0.4827
2023-05-14T07:33:05.209Z,0.4843
2023-05-14T07:34:07.752Z,0.4905
2023-05-14T07:35:10.360Z,0.4843
2023-05-14T07:36:12.963Z,0.4748
2023-05-14T07:37:15.538Z,0.4764
2023-05-14T07:38:18.285Z,0.4720
2023-05-14T07:39:20.764Z,0.4726
2023-05-14T07:40:23.683Z,0.4603
2023-05-14T07:41:25.955Z,0.4622
2023-05-14T07:42:35.944Z,0.4724
2023-05-14T07:43:31.159Z,0.4876
2023-05-14T07:44:33.785Z,0.4796
2023-05-14T07:45:36.342Z,0.4807
2023-05-14T07:46:38.965Z,0.4749
2023-05-14T07:47:41.641Z,0.4746
2023-05-14T07:48:44.226Z,0.4557
2023-05-14T07:49:46.753Z,0.4653
2023-05-14T07:50:49.382Z,0.4692
2023-05-14T07:51:51.949Z,0.4566
2023-05-14T07:52:54.594Z,0.4653
2023-05-14T07:53:57.150Z,0.4616
2023-05-14T07:54:59.778Z,0.4590
2023-05-14T07:56:02.340Z,0.4725
2023-05-14T07:57:04.967Z,0.4631
2023-05-14T07:58:07.542Z,0.4675
2023-05-14T07:59:10.168Z,0.4629
2023-05-14T08:00:12.740Z,0.4570
2023-05-14T08:01:15.362Z,0.4688
2023-05-14T08:02:17.991Z,0.4794
2023-05-14T08:03:20.634Z,0.4645
2023-05-14T08:06:21.314Z,0.4149
2023-05-14T08:07:23.930Z,0.4431
2023-05-14T08:08:26.505Z,0.4454
2023-05-14T08:09:29.127Z,0.4365
2023-05-14T08:10:31.763Z,0.4382
2023-05-14T08:11:34.333Z,0.4412
2023-05-14T08:12:36.908Z,0.4452
2023-05-14T08:13:39.538Z,0.4401
2023-05-14T08:14:42.150Z,0.4435
2023-05-14T08:15:44.762Z,0.4560
2023-05-14T08:16:47.356Z,0.4507
2023-05-14T08:17:50.024Z,0.4503
2023-05-14T08:18:52.548Z,0.4700
2023-05-14T08:19:55.139Z,0.4584
2023-05-14T08:20:57.906Z,0.4529
2023-05-14T08:22:00.341Z,0.4676
2023-05-14T08:23:02.905Z,0.4684
2023-05-14T08:25:34.792Z,0.4908
2023-05-14T08:26:37.409Z,0.5071
2023-05-14T08:27:39.994Z,0.5178
2023-05-14T08:28:42.637Z,0.5521
2023-05-14T08:29:45.187Z,0.5573
2023-05-14T08:30:47.819Z,0.5136
2023-05-14T08:31:50.398Z,0.4833
2023-05-14T08:32:53.095Z,0.4741
2023-05-14T08:33:55.573Z,0.4750
2023-05-14T08:34:58.207Z,0.4429
2023-05-14T08:36:00.775Z,0.4420
2023-05-14T08:37:03.407Z,0.4503
2023-05-14T08:38:06.001Z,0.4636
2023-05-14T08:39:08.714Z,0.4760
2023-05-14T08:40:11.183Z,0.5078
2023-05-14T08:41:13.799Z,0.4809
2023-05-14T08:42:16.368Z,0.4472
2023-05-14T08:43:18.984Z,0.4423
2023-05-14T08:44:21.560Z,0.4489
2023-05-14T08:45:24.171Z,0.4474
2023-05-14T08:46:26.751Z,0.4395
2023-05-14T08:47:29.378Z,0.4460
2023-05-14T08:48:32.095Z,0.4543
2023-05-14T08:49:34.573Z,0.4852
2023-05-14T08:50:37.134Z,0.5139
2023-05-14T08:51:39.744Z,0.5087
2023-05-14T08:52:42.323Z,0.4944
2023-05-14T08:53:44.948Z,0.4809
2023-05-14T08:54:47.511Z,0.4757
2023-05-14T08:55:50.122Z,0.4586
2023-05-14T08:56:52.702Z,0.4366
2023-05-14T08:57:55.316Z,0.4394
2023-05-14T08:58:57.872Z,0.4484
2023-05-14T09:00:00.510Z,0.4513
2023-05-14T09:01:03.063Z,0.4587
2023-05-14T09:02:05.766Z,0.4316
2023-05-14T09:03:08.305Z,0.4413
2023-05-14T09:04:10.954Z,0.4472
2023-05-14T09:05:13.480Z,0.4565
2023-05-14T09:06:16.056Z,0.4537
2023-05-14T09:07:18.621Z,0.4616
2023-05-14T09:08:21.339Z,0.4677
2023-05-14T09:09:23.814Z,0.4708
2023-05-14T09:10:27.022Z,0.4703
2023-05-14T09:11:28.995Z,0.4544
2023-05-14T09:12:31.618Z,0.4543
2023-05-14T09:13:34.193Z,0.4347
2023-05-14T09:14:36.808Z,0.4448
2023-05-14T09:15:39.372Z,0.4554
2023-05-14T09:16:42.041Z,0.4538
2023-05-14T09:17:44.589Z,0.4639
2023-05-14T09:18:47.233Z,0.4555
2023-05-14T09:19:49.753Z,0.4484
2023-05-14T09:20:52.404Z,0.4554
2023-05-14T09:21:54.949Z,0.4631
2023-05-14T09:22:57.575Z,0.4729
2023-05-14T09:24:00.164Z,0.4778
2023-05-14T09:25:02.770Z,0.4695
2023-05-14T09:26:05.359Z,0.4774
2023-05-14T09:27:07.952Z,0.4984
2023-05-14T09:28:10.544Z,0.4915
2023-05-14T09:29:13.170Z,0.4907
2023-05-14T09:31:49.876Z,0.3921
2023-05-14T09:32:52.420Z,0.4387
2023-05-14T09:35:19.401Z,0.3894
2023-05-14T09:36:22.016Z,0.4290
2023-05-14T09:37:24.591Z,0.4263
2023-05-14T09:38:27.213Z,0.4374
2023-05-14T09:39:29.796Z,0.4401
2023-05-14T09:40:32.424Z,0.4450
2023-05-14T09:41:35.069Z,0.4424
2023-05-14T09:42:37.617Z,0.4508
2023-05-14T09:43:40.183Z,0.4623
2023-05-14T09:44:42.809Z,0.4618
2023-05-14T09:45:45.382Z,0.4817
2023-05-14T09:46:48.071Z,0.4721
2023-05-14T09:47:50.687Z,0.4825
2023-05-14T09:48:53.210Z,0.4608
2023-05-14T09:49:55.816Z,0.4664
2023-05-14T09:50:58.498Z,0.4616
2023-05-14T09:52:01.064Z,0.4476
2023-05-14T09:53:03.600Z,0.4549
2023-05-14T09:54:06.169Z,0.4624
2023-05-14T09:55:08.791Z,0.4586
2023-05-14T09:56:11.379Z,0.4571
2023-05-14T09:57:14.242Z,0.4499
2023-05-14T09:58:16.573Z,0.4469
2023-05-14T09:59:19.181Z,0.4506
2023-05-14T10:00:22.206Z,0.4599
2023-05-14T10:01:24.423Z,0.4548
2023-05-14T10:02:26.960Z,0.4673
2023-05-14T10:03:29.573Z,0.4606
2023-05-14T10:04:32.163Z,0.4571
2023-05-14T10:05:34.798Z,0.4491
2023-05-14T10:06:37.327Z,0.4464
2023-05-14T10:07:39.973Z,0.4377
2023-05-14T10:08:42.524Z,0.4421
2023-05-14T10:09:45.310Z,0.4594
2023-05-14T10:10:47.716Z,0.4480
2023-05-14T10:11:50.333Z,0.4405
2023-05-14T10:12:52.920Z,0.4567
2023-05-14T10:13:55.523Z,0.4551
2023-05-14T10:15:00.211Z,0.4770
2023-05-14T10:16:00.698Z,0.4662
2023-05-14T10:17:03.407Z,0.4562
2023-05-14T10:18:05.990Z,0.4642
2023-05-14T10:19:08.560Z,0.4601
2023-05-14T10:20:11.111Z,0.4646
2023-05-14T10:21:13.720Z,0.4655
2023-05-14T10:22:16.446Z,0.4723
2023-05-14T10:23:18.886Z,0.4369
2023-05-14T10:24:21.460Z,0.4390
2023-05-14T10:25:24.086Z,0.4387
2023-05-14T10:26:26.645Z,0.4462
2023-05-14T10:27:29.258Z,0.4480
2023-05-14T10:28:31.858Z,0.4490
2023-05-14T10:29:34.465Z,0.4665
2023-05-14T10:30:37.026Z,0.4605
2023-05-14T10:31:39.782Z,0.4259
2023-05-14T10:32:42.331Z,0.4169
2023-05-14T10:33:44.831Z,0.4172
2023-05-14T10:34:47.397Z,0.4217
2023-05-14T10:35:50.039Z,0.4285
2023-05-14T10:36:52.586Z,0.4369
2023-05-14T10:37:55.218Z,0.4536
2023-05-14T10:38:57.788Z,0.4647
2023-05-14T10:40:00.397Z,0.4723
2023-05-14T10:41:02.980Z,0.4724
2023-05-14T10:43:49.249Z,0.4655
2023-05-14T10:44:51.877Z,0.4860
2023-05-14T10:45:54.444Z,0.4923
2023-05-14T10:48:11.907Z,0.4649
2023-05-14T10:49:14.468Z,0.4915
2023-05-14T10:50:17.057Z,0.4797
2023-05-14T10:51:19.711Z,0.4698
2023-05-14T10:52:22.274Z,0.4616
2023-05-14T10:53:24.827Z,0.4698
2023-05-14T10:54:27.472Z,0.4708
2023-05-14T10:55:30.036Z,0.4581
2023-05-14T10:56:32.653Z,0.4563
2023-05-14T10:57:35.225Z,0.4492
2023-05-14T10:58:37.854Z,0.4387
2023-05-14T10:59:40.436Z,0.4385
2023-05-14T11:00:43.048Z,0.4403
2023-05-14T11:01:45.666Z,0.4454
2023-05-14T11:02:48.293Z,0.4371
2023-05-14T11:03:50.825Z,0.4314
2023-05-14T11:04:53.431Z,0.4218
2023-05-14T11:05:55.993Z,0.4194
2023-05-14T11:06:58.625Z,0.4381
2023-05-14T11:08:01.189Z,0.4517
2023-05-14T11:09:03.831Z,0.4406
2023-05-14T11:10:06.406Z,0.4313
2023-05-14T11:11:09.010Z,0.4277
2023-05-14T11:12:11.582Z,0.4407
2023-05-14T11:13:14.207Z,0.4469
2023-05-14T11:14:16.786Z,0.4373
2023-05-14T11:15:19.410Z,0.4467
2023-05-14T11:16:24.007Z,0.4490
2023-05-14T11:17:24.632Z,0.4399
2023-05-14T11:18:27.191Z,0.4373
2023-05-14T11:19:29.780Z,0.4390
2023-05-14T11:20:32.357Z,0.4335
2023-05-14T11:21:35.003Z,0.4392
2023-05-14T11:22:37.545Z,0.4399
2023-05-14T11:23:40.157Z,0.4420
2023-05-14T11:24:42.733Z,0.4375
2023-05-14T11:25:45.389Z,0.4536
2023-05-14T11:26:47.928Z,0.4493
2023-05-14T11:27:50.578Z,0.4449
2023-05-14T11:28:53.141Z,0.4556
2023-05-14T11:29:55.780Z,0.4501
2023-05-14T11:30:58.327Z,0.4397
2023-05-14T11:32:00.994Z,0.4501
2023-05-14T11:34:47.180Z,0.3540
2023-05-14T11:35:49.758Z,0.3934
2023-05-14T11:36:52.381Z,0.4087
2023-05-14T11:37:54.953Z,0.4194
2023-05-14T11:38:57.567Z,0.4281
2023-05-14T11:40:00.201Z,0.4272
2023-05-14T11:41:02.795Z,0.4269
2023-05-14T11:42:05.339Z,0.4339
2023-05-14T11:43:07.965Z,0.4452
2023-05-14T11:44:10.544Z,0.4324
2023-05-14T11:45:13.240Z,0.4280
2023-05-14T11:46:15.808Z,0.4266
2023-05-14T11:47:18.412Z,0.4255
2023-05-14T11:48:20.942Z,0.4398
2023-05-14T11:49:23.580Z,0.4346
2023-05-14T11:50:26.374Z,0.4433
2023-05-14T11:51:28.764Z,0.4412
2023-05-14T11:52:31.343Z,0.4418
2023-05-14T11:53:33.962Z,0.4412
2023-05-14T11:56:01.001Z,0.4830
2023-05-14T11:57:03.798Z,0.4882
2023-05-14T11:58:06.193Z,0.4697
2023-05-14T11:59:08.768Z,0.4605
2023-05-14T12:00:11.414Z,0.4481
2023-05-14T12:01:13.981Z,0.4403
2023-05-14T12:02:16.614Z,0.4340
2023-05-14T12:03:19.333Z,0.4428
2023-05-14T12:04:21.877Z,0.4432
2023-05-14T12:05:24.375Z,0.4399
2023-05-14T12:06:27.067Z,0.4464
2023-05-14T12:07:29.590Z,0.4547
2023-05-14T12:08:32.198Z,0.4517
2023-05-14T12:09:34.783Z,0.4379
2023-05-14T12:10:37.399Z,0.4333
2023-05-14T12:11:39.987Z,0.4483
2023-05-14T12:12:42.595Z,0.4611
2023-05-14T12:13:45.187Z,0.4589
2023-05-14T12:14:47.904Z,0.4601
2023-05-14T12:15:50.672Z,0.4595
2023-05-14T12:16:53.003Z,0.4478
2023-05-14T12:17:55.601Z,0.4370
2023-05-14T12:18:58.244Z,0.4312
2023-05-14T12:20:00.769Z,0.4225
2023-05-14T12:21:03.405Z,0.4258
2023-05-14T12:22:05.990Z,0.4268
2023-05-14T12:23:08.605Z,0.4327
2023-05-14T12:24:11.164Z,0.4324
2023-05-14T12:25:14.134Z,0.4246
2023-05-14T12:26:16.426Z,0.4279
2023-05-14T12:27:18.981Z,0.4360
2023-05-14T12:28:21.555Z,0.4297
2023-05-14T12:29:24.180Z,0.4325
2023-05-14T12:30:26.761Z,0.4393
2023-05-14T12:31:29.433Z,0.4367
2023-05-14T12:32:32.012Z,0.4421
2023-05-14T12:33:34.597Z,0.4378
2023-05-14T12:34:37.683Z,0.4250
2023-05-14T12:35:39.785Z,0.4302
2023-05-14T12:36:42.351Z,0.4339
2023-05-14T12:37:44.989Z,0.4394
2023-05-14T12:38:47.543Z,0.4273
2023-05-14T12:39:50.192Z,0.4158
2023-05-14T12:40:53.203Z,0.4122
2023-05-14T12:41:55.368Z,0.4186
2023-05-14T12:42:57.936Z,0.4172
2023-05-14T12:44:00.581Z,0.4110
2023-05-14T12:45:03.145Z,0.4249
2023-05-14T12:46:05.769Z,0.4268
2023-05-14T12:47:08.374Z,0.4275
2023-05-14T12:48:11.017Z,0.4167
2023-05-14T12:49:13.531Z,0.4160
2023-05-14T12:50:16.349Z,0.4198
2023-05-14T12:51:18.728Z,0.4264
2023-05-14T12:52:36.158Z,0.4277
2023-05-14T12:53:23.967Z,0.4274
2023-05-14T12:54:26.532Z,0.4289
2023-05-14T12:55:29.107Z,0.4345
2023-05-14T12:56:31.724Z,0.4355
2023-05-14T12:57:34.294Z,0.4466
2023-05-14T12:58:36.921Z,0.4449
2023-05-14T12:59:39.492Z,0.4318
2023-05-14T13:00:42.140Z,0.4252
2023-05-14T13:01:44.676Z,0.4371
2023-05-14T13:02:47.308Z,0.4346
2023-05-14T13:03:49.922Z,0.4278
2023-05-14T13:04:52.491Z,0.4422
2023-05-14T13:05:55.069Z,0.4413
2023-05-14T13:06:57.711Z,0.4332
2023-05-14T13:08:00.270Z,0.4230
2023-05-14T13:09:02.894Z,0.4212
2023-05-14T13:10:05.485Z,0.4314
2023-05-14T13:11:08.477Z,0.4483
2023-05-14T13:12:10.817Z,0.4536
2023-05-14T13:13:13.280Z,0.4506
2023-05-14T13:14:15.872Z,0.4336
2023-05-14T13:15:18.478Z,0.4218
2023-05-14T13:16:21.064Z,0.4152
2023-05-14T13:17:23.738Z,0.4073
2023-05-14T13:18:26.311Z,0.4176
2023-05-14T13:19:28.854Z,0.4167
2023-05-14T13:20:31.421Z,0.4254
2023-05-14T13:21:34.057Z,0.4291